sensor_id;sensor_type;location;lat;lon;timestamp;temperature;humidity
8372;DHT22;4223;48.724;8.982;2022-07-17T00:01:13;14.90;99.90
8372;DHT22;4223;48.724;8.982;2022-07-17T00:03:40;14.90;1.00
8372;DHT22;4223;48.724;8.982;2022-07-17T00:06:07;14.80;1.00
8372;DHT22;4223;48.724;8.982;2022-07-17T00:08:35;14.80;1.00
8372;DHT22;4223;48.724;8.982;2022-07-17T00:11:02;14.70;1.00
8372;DHT22;4223;48.724;8.982;2022-07-17T00:13:29;14.70;1.00
8372;DHT22;4223;48.724;8.982;2022-07-17T00:15:56;14.70;99.90
8372;DHT22;4223;48.724;8.982;2022-07-17T00:18:23;14.70;99.90
8372;DHT22;4223;48.724;8.982;2022-07-17T00:20:50;14.60;99.90
8372;DHT22;4223;48.724;8.982;2022-07-17T00:23:17;14.60;99.90
8372;DHT22;4223;48.724;8.982;2022-07-17T00:25:45;14.60;7.70
8372;DHT22;4223;48.724;8.982;2022-07-17T00:28:12;14.50;99.90
8372;DHT22;4223;48.724;8.982;2022-07-17T00:30:39;14.50;99.90
8372;DHT22;4223;48.724;8.982;2022-07-17T00:33:06;14.50;1.00
8372;DHT22;4223;48.724;8.982;2022-07-17T00:35:33;14.50;1.00
8372;DHT22;4223;48.724;8.982;2022-07-17T00:38:00;14.50;99.90
8372;DHT22;4223;48.724;8.982;2022-07-17T00:40:27;14.40;1.00
8372;DHT22;4223;48.724;8.982;2022-07-17T00:42:55;14.40;1.00
8372;DHT22;4223;48.724;8.982;2022-07-17T00:45:22;14.30;99.90
8372;DHT22;4223;48.724;8.982;2022-07-17T00:47:54;14.30;99.90
8372;DHT22;4223;48.724;8.982;2022-07-17T00:50:23;14.30;1.00
8372;DHT22;4223;48.724;8.982;2022-07-17T00:52:50;14.20;99.90
8372;DHT22;4223;48.724;8.982;2022-07-17T00:55:18;14.20;99.90
8372;DHT22;4223;48.724;8.982;2022-07-17T00:57:46;14.20;1.00
8372;DHT22;4223;48.724;8.982;2022-07-17T01:00:15;14.10;1.00
8372;DHT22;4223;48.724;8.982;2022-07-17T01:02:45;14.10;1.00
8372;DHT22;4223;48.724;8.982;2022-07-17T01:05:13;14.10;99.90
8372;DHT22;4223;48.724;8.982;2022-07-17T01:07:40;14.10;1.00
8372;DHT22;4223;48.724;8.982;2022-07-17T01:10:08;14.00;1.00
8372;DHT22;4223;48.724;8.982;2022-07-17T01:12:35;13.90;1.00
8372;DHT22;4223;48.724;8.982;2022-07-17T01:15:03;13.80;93.00
8372;DHT22;4223;48.724;8.982;2022-07-17T01:17:31;13.80;33.40
8372;DHT22;4223;48.724;8.982;2022-07-17T01:19:58;13.80;99.90
8372;DHT22;4223;48.724;8.982;2022-07-17T01:22:26;13.70;99.90
8372;DHT22;4223;48.724;8.982;2022-07-17T01:24:53;13.70;1.00
8372;DHT22;4223;48.724;8.982;2022-07-17T01:27:20;13.70;1.00
8372;DHT22;4223;48.724;8.982;2022-07-17T01:29:47;13.60;97.40
8372;DHT22;4223;48.724;8.982;2022-07-17T01:32:14;13.60;1.00
8372;DHT22;4223;48.724;8.982;2022-07-17T01:34:41;13.60;65.80
8372;DHT22;4223;48.724;8.982;2022-07-17T01:37:07;13.60;99.90
8372;DHT22;4223;48.724;8.982;2022-07-17T01:39:36;13.70;99.90
8372;DHT22;4223;48.724;8.982;2022-07-17T01:42:21;13.70;99.90
8372;DHT22;4223;48.724;8.982;2022-07-17T01:44:48;12.50;99.90
8372;DHT22;4223;48.724;8.982;2022-07-17T01:47:15;13.70;99.90
8372;DHT22;4223;48.724;8.982;2022-07-17T01:49:43;13.70;4.90
8372;DHT22;4223;48.724;8.982;2022-07-17T01:52:11;13.60;99.90
8372;DHT22;4223;48.724;8.982;2022-07-17T01:54:39;13.60;99.90
8372;DHT22;4223;48.724;8.982;2022-07-17T01:57:07;13.50;99.90
8372;DHT22;4223;48.724;8.982;2022-07-17T01:59:34;13.40;99.90
8372;DHT22;4223;48.724;8.982;2022-07-17T02:02:01;13.40;99.90
8372;DHT22;4223;48.724;8.982;2022-07-17T02:04:30;13.40;99.90
8372;DHT22;4223;48.724;8.982;2022-07-17T02:06:57;13.40;1.00
8372;DHT22;4223;48.724;8.982;2022-07-17T02:09:24;13.40;1.00
8372;DHT22;4223;48.724;8.982;2022-07-17T02:11:52;13.40;99.90
8372;DHT22;4223;48.724;8.982;2022-07-17T02:14:19;13.40;80.10
8372;DHT22;4223;48.724;8.982;2022-07-17T02:16:46;13.40;1.00
8372;DHT22;4223;48.724;8.982;2022-07-17T02:19:13;13.40;1.00
8372;DHT22;4223;48.724;8.982;2022-07-17T02:21:40;13.30;1.00
8372;DHT22;4223;48.724;8.982;2022-07-17T02:24:07;13.20;90.60
8372;DHT22;4223;48.724;8.982;2022-07-17T02:26:34;13.10;99.90
8372;DHT22;4223;48.724;8.982;2022-07-17T02:29:02;13.10;1.00
8372;DHT22;4223;48.724;8.982;2022-07-17T02:31:29;13.10;99.90
8372;DHT22;4223;48.724;8.982;2022-07-17T02:33:56;13.00;1.00
8372;DHT22;4223;48.724;8.982;2022-07-17T02:36:23;12.90;1.00
8372;DHT22;4223;48.724;8.982;2022-07-17T02:38:50;13.00;99.90
8372;DHT22;4223;48.724;8.982;2022-07-17T02:41:17;13.00;99.90
8372;DHT22;4223;48.724;8.982;2022-07-17T02:43:44;13.00;1.00
8372;DHT22;4223;48.724;8.982;2022-07-17T02:46:12;13.00;99.90
8372;DHT22;4223;48.724;8.982;2022-07-17T02:48:40;13.00;1.00
8372;DHT22;4223;48.724;8.982;2022-07-17T02:51:06;12.90;99.90
8372;DHT22;4223;48.724;8.982;2022-07-17T02:53:33;12.90;1.00
8372;DHT22;4223;48.724;8.982;2022-07-17T02:56:00;12.90;1.00
8372;DHT22;4223;48.724;8.982;2022-07-17T02:58:27;12.90;1.00
8372;DHT22;4223;48.724;8.982;2022-07-17T03:00:54;12.90;1.00
8372;DHT22;4223;48.724;8.982;2022-07-17T03:03:22;12.80;99.90
8372;DHT22;4223;48.724;8.982;2022-07-17T03:05:49;12.80;99.90
8372;DHT22;4223;48.724;8.982;2022-07-17T03:08:16;12.80;99.90
8372;DHT22;4223;48.724;8.982;2022-07-17T03:10:43;12.70;1.00
8372;DHT22;4223;48.724;8.982;2022-07-17T03:13:10;12.60;1.00
8372;DHT22;4223;48.724;8.982;2022-07-17T03:15:36;12.50;1.00
8372;DHT22;4223;48.724;8.982;2022-07-17T03:18:03;12.50;1.00
8372;DHT22;4223;48.724;8.982;2022-07-17T03:20:31;12.40;99.90
8372;DHT22;4223;48.724;8.982;2022-07-17T03:22:58;12.40;99.90
8372;DHT22;4223;48.724;8.982;2022-07-17T03:25:25;12.40;19.20
8372;DHT22;4223;48.724;8.982;2022-07-17T03:27:52;12.40;1.00
8372;DHT22;4223;48.724;8.982;2022-07-17T03:30:19;12.30;1.00
8372;DHT22;4223;48.724;8.982;2022-07-17T03:32:46;12.30;1.00
8372;DHT22;4223;48.724;8.982;2022-07-17T03:35:12;12.20;1.00
8372;DHT22;4223;48.724;8.982;2022-07-17T03:37:41;12.20;99.90
8372;DHT22;4223;48.724;8.982;2022-07-17T03:40:10;12.20;1.00
8372;DHT22;4223;48.724;8.982;2022-07-17T03:42:37;12.20;1.00
8372;DHT22;4223;48.724;8.982;2022-07-17T03:45:05;12.10;99.90
8372;DHT22;4223;48.724;8.982;2022-07-17T03:47:32;12.10;99.90
8372;DHT22;4223;48.724;8.982;2022-07-17T03:49:59;12.10;99.90
8372;DHT22;4223;48.724;8.982;2022-07-17T03:52:26;12.10;1.00
8372;DHT22;4223;48.724;8.982;2022-07-17T03:54:54;12.10;1.00
8372;DHT22;4223;48.724;8.982;2022-07-17T03:57:21;12.10;99.90
8372;DHT22;4223;48.724;8.982;2022-07-17T03:59:48;12.10;1.00
8372;DHT22;4223;48.724;8.982;2022-07-17T04:02:15;12.00;1.00
8372;DHT22;4223;48.724;8.982;2022-07-17T04:04:41;12.10;99.90
8372;DHT22;4223;48.724;8.982;2022-07-17T04:07:08;12.10;1.00
8372;DHT22;4223;48.724;8.982;2022-07-17T04:09:54;12.00;1.00
8372;DHT22;4223;48.724;8.982;2022-07-17T04:12:21;12.00;70.60
8372;DHT22;4223;48.724;8.982;2022-07-17T04:14:48;12.00;98.00
8372;DHT22;4223;48.724;8.982;2022-07-17T04:17:15;12.10;99.90
8372;DHT22;4223;48.724;8.982;2022-07-17T04:19:42;12.10;1.00
8372;DHT22;4223;48.724;8.982;2022-07-17T04:22:09;12.00;57.70
8372;DHT22;4223;48.724;8.982;2022-07-17T04:24:36;12.00;1.00
8372;DHT22;4223;48.724;8.982;2022-07-17T04:27:05;12.00;1.00
8372;DHT22;4223;48.724;8.982;2022-07-17T04:29:32;12.00;99.90
8372;DHT22;4223;48.724;8.982;2022-07-17T04:31:58;12.00;99.90
8372;DHT22;4223;48.724;8.982;2022-07-17T04:34:25;12.00;1.00
8372;DHT22;4223;48.724;8.982;2022-07-17T04:36:52;12.00;99.90
8372;DHT22;4223;48.724;8.982;2022-07-17T04:39:20;12.00;1.00
8372;DHT22;4223;48.724;8.982;2022-07-17T04:41:47;12.10;1.00
8372;DHT22;4223;48.724;8.982;2022-07-17T04:44:15;12.20;1.00
8372;DHT22;4223;48.724;8.982;2022-07-17T04:46:42;12.20;1.00
8372;DHT22;4223;48.724;8.982;2022-07-17T04:49:09;12.30;1.00
8372;DHT22;4223;48.724;8.982;2022-07-17T04:51:36;12.30;1.00
8372;DHT22;4223;48.724;8.982;2022-07-17T04:54:03;12.30;99.90
8372;DHT22;4223;48.724;8.982;2022-07-17T04:56:30;12.40;99.90
8372;DHT22;4223;48.724;8.982;2022-07-17T04:58:57;12.40;1.00
8372;DHT22;4223;48.724;8.982;2022-07-17T05:01:25;12.50;1.00
8372;DHT22;4223;48.724;8.982;2022-07-17T05:03:52;12.60;1.00
8372;DHT22;4223;48.724;8.982;2022-07-17T05:06:18;12.60;1.00
8372;DHT22;4223;48.724;8.982;2022-07-17T05:08:45;12.70;1.00
8372;DHT22;4223;48.724;8.982;2022-07-17T05:11:12;12.80;99.90
8372;DHT22;4223;48.724;8.982;2022-07-17T05:13:39;12.90;99.90
8372;DHT22;4223;48.724;8.982;2022-07-17T05:16:06;13.00;74.40
8372;DHT22;4223;48.724;8.982;2022-07-17T05:18:34;13.10;1.00
8372;DHT22;4223;48.724;8.982;2022-07-17T05:21:01;13.20;1.00
8372;DHT22;4223;48.724;8.982;2022-07-17T05:23:28;13.30;99.90
8372;DHT22;4223;48.724;8.982;2022-07-17T05:25:55;13.30;1.00
8372;DHT22;4223;48.724;8.982;2022-07-17T05:28:22;13.40;1.00
8372;DHT22;4223;48.724;8.982;2022-07-17T05:30:49;13.50;1.00
8372;DHT22;4223;48.724;8.982;2022-07-17T05:33:16;13.60;99.90
8372;DHT22;4223;48.724;8.982;2022-07-17T05:35:44;13.60;99.90
8372;DHT22;4223;48.724;8.982;2022-07-17T05:38:11;13.60;1.00
8372;DHT22;4223;48.724;8.982;2022-07-17T05:40:38;13.70;99.90
8372;DHT22;4223;48.724;8.982;2022-07-17T05:43:05;13.70;1.00
8372;DHT22;4223;48.724;8.982;2022-07-17T05:45:31;13.80;99.90
8372;DHT22;4223;48.724;8.982;2022-07-17T05:47:58;14.00;1.00
8372;DHT22;4223;48.724;8.982;2022-07-17T05:50:25;14.10;1.00
8372;DHT22;4223;48.724;8.982;2022-07-17T05:52:53;14.20;99.90
8372;DHT22;4223;48.724;8.982;2022-07-17T05:55:20;14.30;1.00
8372;DHT22;4223;48.724;8.982;2022-07-17T05:57:47;14.40;99.90
8372;DHT22;4223;48.724;8.982;2022-07-17T06:00:14;14.50;99.90
8372;DHT22;4223;48.724;8.982;2022-07-17T06:02:41;14.60;99.90
8372;DHT22;4223;48.724;8.982;2022-07-17T06:05:08;14.70;13.60
8372;DHT22;4223;48.724;8.982;2022-07-17T06:07:35;14.80;99.90
8372;DHT22;4223;48.724;8.982;2022-07-17T06:10:05;14.90;99.90
8372;DHT22;4223;48.724;8.982;2022-07-17T06:12:32;15.10;1.00
8372;DHT22;4223;48.724;8.982;2022-07-17T06:14:59;15.20;1.00
8372;DHT22;4223;48.724;8.982;2022-07-17T06:17:25;15.30;1.00
8372;DHT22;4223;48.724;8.982;2022-07-17T06:19:54;15.40;99.90
8372;DHT22;4223;48.724;8.982;2022-07-17T06:22:21;15.50;99.90
8372;DHT22;4223;48.724;8.982;2022-07-17T06:24:48;15.60;99.90
8372;DHT22;4223;48.724;8.982;2022-07-17T06:27:16;15.80;99.90
8372;DHT22;4223;48.724;8.982;2022-07-17T06:29:43;15.90;99.90
8372;DHT22;4223;48.724;8.982;2022-07-17T06:32:10;16.10;62.90
8372;DHT22;4223;48.724;8.982;2022-07-17T06:34:37;16.20;44.80
8372;DHT22;4223;48.724;8.982;2022-07-17T06:37:04;16.40;1.00
8372;DHT22;4223;48.724;8.982;2022-07-17T06:39:31;16.60;1.00
8372;DHT22;4223;48.724;8.982;2022-07-17T06:41:58;16.70;1.00
8372;DHT22;4223;48.724;8.982;2022-07-17T06:44:26;16.90;1.00
8372;DHT22;4223;48.724;8.982;2022-07-17T06:46:53;17.10;1.00
8372;DHT22;4223;48.724;8.982;2022-07-17T06:49:20;17.20;1.00
8372;DHT22;4223;48.724;8.982;2022-07-17T06:51:47;17.30;1.00
8372;DHT22;4223;48.724;8.982;2022-07-17T06:54:14;17.50;1.00
8372;DHT22;4223;48.724;8.982;2022-07-17T06:56:41;17.70;1.00
8372;DHT22;4223;48.724;8.982;2022-07-17T06:59:08;17.90;1.00
8372;DHT22;4223;48.724;8.982;2022-07-17T07:01:37;18.00;1.00
8372;DHT22;4223;48.724;8.982;2022-07-17T07:04:04;18.20;99.90
8372;DHT22;4223;48.724;8.982;2022-07-17T07:06:31;18.30;99.90
8372;DHT22;4223;48.724;8.982;2022-07-17T07:08:58;18.40;99.90
8372;DHT22;4223;48.724;8.982;2022-07-17T07:11:25;18.50;99.90
8372;DHT22;4223;48.724;8.982;2022-07-17T07:13:52;18.60;99.90
8372;DHT22;4223;48.724;8.982;2022-07-17T07:16:19;18.70;99.90
8372;DHT22;4223;48.724;8.982;2022-07-17T07:18:48;19.10;99.90
8372;DHT22;4223;48.724;8.982;2022-07-17T07:21:15;19.40;99.90
8372;DHT22;4223;48.724;8.982;2022-07-17T07:23:42;19.70;99.90
8372;DHT22;4223;48.724;8.982;2022-07-17T07:26:09;20.00;99.90
8372;DHT22;4223;48.724;8.982;2022-07-17T07:28:35;20.20;99.90
8372;DHT22;4223;48.724;8.982;2022-07-17T07:31:03;20.40;99.90
8372;DHT22;4223;48.724;8.982;2022-07-17T07:33:30;20.70;99.90
8372;DHT22;4223;48.724;8.982;2022-07-17T07:35:59;21.20;99.90
8372;DHT22;4223;48.724;8.982;2022-07-17T07:38:25;21.60;99.90
8372;DHT22;4223;48.724;8.982;2022-07-17T07:40:52;21.90;99.90
8372;DHT22;4223;48.724;8.982;2022-07-17T07:43:20;22.30;99.90
8372;DHT22;4223;48.724;8.982;2022-07-17T07:45:47;22.50;99.90
8372;DHT22;4223;48.724;8.982;2022-07-17T07:48:14;22.90;99.90
8372;DHT22;4223;48.724;8.982;2022-07-17T07:50:40;23.60;99.90
8372;DHT22;4223;48.724;8.982;2022-07-17T07:53:09;24.40;99.90
8372;DHT22;4223;48.724;8.982;2022-07-17T07:55:36;25.00;99.90
8372;DHT22;4223;48.724;8.982;2022-07-17T07:58:03;25.50;99.90
8372;DHT22;4223;48.724;8.982;2022-07-17T08:00:31;25.80;99.90
8372;DHT22;4223;48.724;8.982;2022-07-17T08:02:59;26.60;99.90
8372;DHT22;4223;48.724;8.982;2022-07-17T08:05:26;27.20;99.90
8372;DHT22;4223;48.724;8.982;2022-07-17T08:07:52;27.40;99.90
8372;DHT22;4223;48.724;8.982;2022-07-17T08:10:21;27.30;99.90
8372;DHT22;4223;48.724;8.982;2022-07-17T08:12:48;27.90;99.90
8372;DHT22;4223;48.724;8.982;2022-07-17T08:15:16;28.40;97.40
8372;DHT22;4223;48.724;8.982;2022-07-17T08:17:43;28.30;98.70
8372;DHT22;4223;48.724;8.982;2022-07-17T08:20:11;28.20;97.70
8372;DHT22;4223;48.724;8.982;2022-07-17T08:22:38;27.70;99.90
8372;DHT22;4223;48.724;8.982;2022-07-17T08:25:06;28.50;99.90
8372;DHT22;4223;48.724;8.982;2022-07-17T08:27:36;28.60;96.90
8372;DHT22;4223;48.724;8.982;2022-07-17T08:30:04;28.50;98.60
8372;DHT22;4223;48.724;8.982;2022-07-17T08:32:32;29.00;95.60
8372;DHT22;4223;48.724;8.982;2022-07-17T08:34:59;28.60;96.80
8372;DHT22;4223;48.724;8.982;2022-07-17T08:37:26;28.60;95.10
8372;DHT22;4223;48.724;8.982;2022-07-17T08:39:54;28.90;94.60
8372;DHT22;4223;48.724;8.982;2022-07-17T08:42:21;28.90;94.40
8372;DHT22;4223;48.724;8.982;2022-07-17T08:44:50;28.60;94.50
8372;DHT22;4223;48.724;8.982;2022-07-17T08:47:17;28.90;90.20
8372;DHT22;4223;48.724;8.982;2022-07-17T08:49:45;29.20;91.50
8372;DHT22;4223;48.724;8.982;2022-07-17T08:52:13;29.00;90.40
8372;DHT22;4223;48.724;8.982;2022-07-17T08:54:40;29.30;91.10
8372;DHT22;4223;48.724;8.982;2022-07-17T08:57:07;29.30;86.60
8372;DHT22;4223;48.724;8.982;2022-07-17T08:59:35;29.40;86.80
8372;DHT22;4223;48.724;8.982;2022-07-17T09:02:05;29.20;83.40
8372;DHT22;4223;48.724;8.982;2022-07-17T09:04:32;29.00;86.00
8372;DHT22;4223;48.724;8.982;2022-07-17T09:07:00;29.00;84.00
8372;DHT22;4223;48.724;8.982;2022-07-17T09:09:28;29.10;83.10
8372;DHT22;4223;48.724;8.982;2022-07-17T09:11:56;28.60;84.20
8372;DHT22;4223;48.724;8.982;2022-07-17T09:14:24;28.60;81.90
8372;DHT22;4223;48.724;8.982;2022-07-17T09:17:06;28.80;88.70
8372;DHT22;4223;48.724;8.982;2022-07-17T09:19:36;29.00;83.40
8372;DHT22;4223;48.724;8.982;2022-07-17T09:22:04;29.20;82.80
8372;DHT22;4223;48.724;8.982;2022-07-17T09:24:44;28.80;79.90
8372;DHT22;4223;48.724;8.982;2022-07-17T09:27:12;28.20;82.70
8372;DHT22;4223;48.724;8.982;2022-07-17T09:29:51;27.90;80.40
8372;DHT22;4223;48.724;8.982;2022-07-17T09:32:21;27.50;81.90
8372;DHT22;4223;48.724;8.982;2022-07-17T09:34:49;28.00;78.60
8372;DHT22;4223;48.724;8.982;2022-07-17T09:37:17;28.30;79.70
8372;DHT22;4223;48.724;8.982;2022-07-17T09:39:44;28.20;80.90
8372;DHT22;4223;48.724;8.982;2022-07-17T09:42:22;28.70;84.90
8372;DHT22;4223;48.724;8.982;2022-07-17T09:44:57;28.90;76.90
8372;DHT22;4223;48.724;8.982;2022-07-17T09:47:27;29.50;78.10
8372;DHT22;4223;48.724;8.982;2022-07-17T09:49:55;29.50;78.70
8372;DHT22;4223;48.724;8.982;2022-07-17T09:52:23;29.60;85.20
8372;DHT22;4223;48.724;8.982;2022-07-17T09:54:52;29.40;72.00
8372;DHT22;4223;48.724;8.982;2022-07-17T09:57:21;29.80;58.70
8372;DHT22;4223;48.724;8.982;2022-07-17T09:59:53;29.60;59.50
8372;DHT22;4223;48.724;8.982;2022-07-17T10:02:20;29.50;63.20
8372;DHT22;4223;48.724;8.982;2022-07-17T10:04:49;29.00;58.40
8372;DHT22;4223;48.724;8.982;2022-07-17T10:07:16;28.80;59.20
8372;DHT22;4223;48.724;8.982;2022-07-17T10:09:44;28.80;59.00
8372;DHT22;4223;48.724;8.982;2022-07-17T10:12:12;29.10;59.70
8372;DHT22;4223;48.724;8.982;2022-07-17T10:14:40;28.90;59.40
8372;DHT22;4223;48.724;8.982;2022-07-17T10:17:08;29.20;59.00
8372;DHT22;4223;48.724;8.982;2022-07-17T10:19:46;29.20;56.50
8372;DHT22;4223;48.724;8.982;2022-07-17T10:22:15;29.50;54.50
8372;DHT22;4223;48.724;8.982;2022-07-17T10:24:49;29.50;74.40
8372;DHT22;4223;48.724;8.982;2022-07-17T10:27:19;29.70;58.80
8372;DHT22;4223;48.724;8.982;2022-07-17T10:29:46;29.80;53.60
8372;DHT22;4223;48.724;8.982;2022-07-17T10:32:15;29.60;53.10
8372;DHT22;4223;48.724;8.982;2022-07-17T10:34:44;29.60;58.00
8372;DHT22;4223;48.724;8.982;2022-07-17T10:37:20;29.60;55.40
8372;DHT22;4223;48.724;8.982;2022-07-17T10:40:03;29.70;51.70
8372;DHT22;4223;48.724;8.982;2022-07-17T10:42:38;29.60;54.40
8372;DHT22;4223;48.724;8.982;2022-07-17T10:45:07;29.80;54.40
8372;DHT22;4223;48.724;8.982;2022-07-17T10:47:53;29.80;50.30
8372;DHT22;4223;48.724;8.982;2022-07-17T10:50:23;29.60;51.80
8372;DHT22;4223;48.724;8.982;2022-07-17T10:53:00;29.40;46.90
8372;DHT22;4223;48.724;8.982;2022-07-17T10:55:27;29.30;50.50
8372;DHT22;4223;48.724;8.982;2022-07-17T10:57:54;29.00;47.40
8372;DHT22;4223;48.724;8.982;2022-07-17T11:00:21;28.90;47.40
8372;DHT22;4223;48.724;8.982;2022-07-17T11:02:48;29.20;47.50
8372;DHT22;4223;48.724;8.982;2022-07-17T11:05:16;29.20;42.20
8372;DHT22;4223;48.724;8.982;2022-07-17T11:07:55;29.20;45.80
8372;DHT22;4223;48.724;8.982;2022-07-17T11:10:25;29.30;47.30
8372;DHT22;4223;48.724;8.982;2022-07-17T11:12:53;29.10;45.80
8372;DHT22;4223;48.724;8.982;2022-07-17T11:15:20;29.30;45.80
8372;DHT22;4223;48.724;8.982;2022-07-17T11:17:48;29.00;41.00
8372;DHT22;4223;48.724;8.982;2022-07-17T11:20:16;28.50;41.00
8372;DHT22;4223;48.724;8.982;2022-07-17T11:22:43;28.60;45.00
8372;DHT22;4223;48.724;8.982;2022-07-17T11:25:11;28.60;41.00
8372;DHT22;4223;48.724;8.982;2022-07-17T11:27:39;28.80;41.20
8372;DHT22;4223;48.724;8.982;2022-07-17T11:30:11;28.70;35.60
8372;DHT22;4223;48.724;8.982;2022-07-17T11:32:39;28.90;36.50
8372;DHT22;4223;48.724;8.982;2022-07-17T11:35:20;28.60;36.40
8372;DHT22;4223;48.724;8.982;2022-07-17T11:37:48;28.70;35.40
8372;DHT22;4223;48.724;8.982;2022-07-17T11:40:16;28.70;34.20
8372;DHT22;4223;48.724;8.982;2022-07-17T11:42:44;28.80;35.60
8372;DHT22;4223;48.724;8.982;2022-07-17T11:45:12;28.60;30.80
8372;DHT22;4223;48.724;8.982;2022-07-17T11:47:39;28.80;33.50
8372;DHT22;4223;48.724;8.982;2022-07-17T11:50:08;28.80;32.50
8372;DHT22;4223;48.724;8.982;2022-07-17T11:52:43;28.90;35.10
8372;DHT22;4223;48.724;8.982;2022-07-17T11:55:10;28.90;32.10
8372;DHT22;4223;48.724;8.982;2022-07-17T11:57:45;29.00;32.10
8372;DHT22;4223;48.724;8.982;2022-07-17T12:00:14;28.90;30.70
8372;DHT22;4223;48.724;8.982;2022-07-17T12:02:41;28.70;32.50
8372;DHT22;4223;48.724;8.982;2022-07-17T12:05:08;28.50;33.40
8372;DHT22;4223;48.724;8.982;2022-07-17T12:07:41;28.40;34.90
8372;DHT22;4223;48.724;8.982;2022-07-17T12:10:12;28.50;33.10
8372;DHT22;4223;48.724;8.982;2022-07-17T12:12:39;28.10;30.60
8372;DHT22;4223;48.724;8.982;2022-07-17T12:15:08;28.20;32.30
8372;DHT22;4223;48.724;8.982;2022-07-17T12:17:39;28.00;32.00
8372;DHT22;4223;48.724;8.982;2022-07-17T12:20:08;28.00;33.80
8372;DHT22;4223;48.724;8.982;2022-07-17T12:22:43;28.40;33.20
8372;DHT22;4223;48.724;8.982;2022-07-17T12:25:09;28.50;32.40
8372;DHT22;4223;48.724;8.982;2022-07-17T12:27:37;28.60;33.20
8372;DHT22;4223;48.724;8.982;2022-07-17T12:30:05;28.60;29.90
8372;DHT22;4223;48.724;8.982;2022-07-17T12:32:40;28.20;31.70
8372;DHT22;4223;48.724;8.982;2022-07-17T12:35:07;28.30;31.00
8372;DHT22;4223;48.724;8.982;2022-07-17T12:37:34;28.60;31.40
8372;DHT22;4223;48.724;8.982;2022-07-17T12:40:01;28.90;29.10
8372;DHT22;4223;48.724;8.982;2022-07-17T12:42:28;28.60;30.70
8372;DHT22;4223;48.724;8.982;2022-07-17T12:44:55;28.80;29.80
8372;DHT22;4223;48.724;8.982;2022-07-17T12:47:22;28.50;30.40
8372;DHT22;4223;48.724;8.982;2022-07-17T12:49:50;28.10;30.20
8372;DHT22;4223;48.724;8.982;2022-07-17T12:52:17;27.80;30.60
8372;DHT22;4223;48.724;8.982;2022-07-17T12:54:44;27.90;30.00
8372;DHT22;4223;48.724;8.982;2022-07-17T12:57:11;27.80;28.50
8372;DHT22;4223;48.724;8.982;2022-07-17T12:59:38;27.90;31.00
8372;DHT22;4223;48.724;8.982;2022-07-17T13:02:04;28.30;29.40
8372;DHT22;4223;48.724;8.982;2022-07-17T13:04:31;28.70;28.90
8372;DHT22;4223;48.724;8.982;2022-07-17T13:06:59;28.90;29.00
8372;DHT22;4223;48.724;8.982;2022-07-17T13:09:26;28.90;28.80
8372;DHT22;4223;48.724;8.982;2022-07-17T13:11:55;28.60;44.50
8372;DHT22;4223;48.724;8.982;2022-07-17T13:14:21;28.60;28.70
8372;DHT22;4223;48.724;8.982;2022-07-17T13:16:48;28.80;28.70
8372;DHT22;4223;48.724;8.982;2022-07-17T13:19:15;28.90;28.80
8372;DHT22;4223;48.724;8.982;2022-07-17T13:21:42;28.70;28.80
8372;DHT22;4223;48.724;8.982;2022-07-17T13:24:10;28.60;28.60
8372;DHT22;4223;48.724;8.982;2022-07-17T13:26:37;28.60;28.60
8372;DHT22;4223;48.724;8.982;2022-07-17T13:29:04;28.70;29.30
8372;DHT22;4223;48.724;8.982;2022-07-17T13:31:31;28.80;44.40
8372;DHT22;4223;48.724;8.982;2022-07-17T13:33:58;28.70;28.70
8372;DHT22;4223;48.724;8.982;2022-07-17T13:36:25;28.70;28.70
8372;DHT22;4223;48.724;8.982;2022-07-17T13:38:52;28.60;29.10
8372;DHT22;4223;48.724;8.982;2022-07-17T13:41:20;28.60;28.60
8372;DHT22;4223;48.724;8.982;2022-07-17T13:43:48;28.60;28.60
8372;DHT22;4223;48.724;8.982;2022-07-17T13:46:14;28.50;29.30
8372;DHT22;4223;48.724;8.982;2022-07-17T13:48:42;28.70;44.20
8372;DHT22;4223;48.724;8.982;2022-07-17T13:51:09;28.60;28.60
8372;DHT22;4223;48.724;8.982;2022-07-17T13:53:36;28.60;29.10
8372;DHT22;4223;48.724;8.982;2022-07-17T13:56:03;28.50;29.00
8372;DHT22;4223;48.724;8.982;2022-07-17T13:58:31;28.40;28.50
8372;DHT22;4223;48.724;8.982;2022-07-17T14:00:59;28.50;28.50
8372;DHT22;4223;48.724;8.982;2022-07-17T14:03:26;28.40;28.50
8372;DHT22;4223;48.724;8.982;2022-07-17T14:05:53;28.50;29.20
8372;DHT22;4223;48.724;8.982;2022-07-17T14:08:20;28.70;28.70
8372;DHT22;4223;48.724;8.982;2022-07-17T14:10:47;28.80;28.80
8372;DHT22;4223;48.724;8.982;2022-07-17T14:13:14;28.60;28.60
8372;DHT22;4223;48.724;8.982;2022-07-17T14:15:42;28.40;28.50
8372;DHT22;4223;48.724;8.982;2022-07-17T14:18:09;28.50;28.50
8372;DHT22;4223;48.724;8.982;2022-07-17T14:20:36;28.30;29.10
8372;DHT22;4223;48.724;8.982;2022-07-17T14:23:03;28.20;28.90
8372;DHT22;4223;48.724;8.982;2022-07-17T14:25:29;28.20;29.10
8372;DHT22;4223;48.724;8.982;2022-07-17T14:27:56;28.20;28.50
8372;DHT22;4223;48.724;8.982;2022-07-17T14:30:23;28.30;29.00
8372;DHT22;4223;48.724;8.982;2022-07-17T14:32:51;28.20;29.00
8372;DHT22;4223;48.724;8.982;2022-07-17T14:35:19;28.40;28.50
8372;DHT22;4223;48.724;8.982;2022-07-17T14:37:46;28.20;28.30
8372;DHT22;4223;48.724;8.982;2022-07-17T14:40:13;28.10;28.50
8372;DHT22;4223;48.724;8.982;2022-07-17T14:42:41;28.10;43.90
8372;DHT22;4223;48.724;8.982;2022-07-17T14:45:09;28.00;28.30
8372;DHT22;4223;48.724;8.982;2022-07-17T14:47:36;28.10;28.30
8372;DHT22;4223;48.724;8.982;2022-07-17T14:50:05;28.10;29.20
8372;DHT22;4223;48.724;8.982;2022-07-17T14:52:32;28.10;28.30
8372;DHT22;4223;48.724;8.982;2022-07-17T14:54:59;28.10;28.30
8372;DHT22;4223;48.724;8.982;2022-07-17T14:57:26;28.10;28.30
8372;DHT22;4223;48.724;8.982;2022-07-17T14:59:53;28.10;28.50
8372;DHT22;4223;48.724;8.982;2022-07-17T15:02:20;28.20;28.50
8372;DHT22;4223;48.724;8.982;2022-07-17T15:04:47;28.20;29.00
8372;DHT22;4223;48.724;8.982;2022-07-17T15:07:15;28.20;28.30
8372;DHT22;4223;48.724;8.982;2022-07-17T15:09:42;28.30;28.40
8372;DHT22;4223;48.724;8.982;2022-07-17T15:12:08;28.20;28.50
8372;DHT22;4223;48.724;8.982;2022-07-17T15:14:35;28.10;28.40
8372;DHT22;4223;48.724;8.982;2022-07-17T15:17:02;28.10;28.30
8372;DHT22;4223;48.724;8.982;2022-07-17T15:19:29;28.10;28.50
8372;DHT22;4223;48.724;8.982;2022-07-17T15:21:56;28.00;28.40
8372;DHT22;4223;48.724;8.982;2022-07-17T15:24:24;27.90;28.20
8372;DHT22;4223;48.724;8.982;2022-07-17T15:26:51;27.90;28.20
8372;DHT22;4223;48.724;8.982;2022-07-17T15:29:18;27.80;28.20
8372;DHT22;4223;48.724;8.982;2022-07-17T15:31:46;27.80;28.20
8372;DHT22;4223;48.724;8.982;2022-07-17T15:34:13;27.90;28.70
8372;DHT22;4223;48.724;8.982;2022-07-17T15:36:40;28.00;28.80
8372;DHT22;4223;48.724;8.982;2022-07-17T15:39:07;28.10;28.30
8372;DHT22;4223;48.724;8.982;2022-07-17T15:41:36;28.10;28.30
8372;DHT22;4223;48.724;8.982;2022-07-17T15:44:03;28.10;28.80
8372;DHT22;4223;48.724;8.982;2022-07-17T15:46:30;28.10;28.30
8372;DHT22;4223;48.724;8.982;2022-07-17T15:48:58;28.20;28.70
8372;DHT22;4223;48.724;8.982;2022-07-17T15:51:24;28.20;28.50
8372;DHT22;4223;48.724;8.982;2022-07-17T15:53:52;28.20;28.40
8372;DHT22;4223;48.724;8.982;2022-07-17T15:56:18;28.20;28.60
8372;DHT22;4223;48.724;8.982;2022-07-17T15:58:47;28.10;28.50
8372;DHT22;4223;48.724;8.982;2022-07-17T16:01:14;28.20;28.50
8372;DHT22;4223;48.724;8.982;2022-07-17T16:03:41;28.20;28.90
8372;DHT22;4223;48.724;8.982;2022-07-17T16:06:08;28.10;28.40
8372;DHT22;4223;48.724;8.982;2022-07-17T16:08:35;28.00;28.30